createdAt,value
2023-03-05T00:00:47.317Z,1010.5
2023-03-05T00:05:53.736Z,1010.5
2023-03-05T00:11:00.015Z,1010.4
2023-03-05T00:16:06.469Z,1010.3
2023-03-05T00:21:14.360Z,1010.2
2023-03-05T00:26:22.284Z,1010.2
2023-03-05T00:31:30.491Z,1010.2
2023-03-05T00:36:38.236Z,1010.2
2023-03-05T00:41:46.187Z,1010.2
2023-03-05T00:46:54.227Z,1010.2
2023-03-05T00:52:02.133Z,1010.1
2023-03-05T00:57:10.048Z,1010
2023-03-05T01:02:18.008Z,1010
2023-03-05T01:07:26.001Z,1010
2023-03-05T01:12:33.923Z,1009.9
2023-03-05T01:17:41.841Z,1009.9
2023-03-05T01:22:49.873Z,1009.9
2023-03-05T01:27:57.768Z,1009.8
2023-03-05T01:33:05.724Z,1009.8
2023-03-05T01:38:13.706Z,1009.7
2023-03-05T01:43:21.639Z,1009.6
2023-03-05T01:48:29.606Z,1009.6
2023-03-05T01:53:37.687Z,1009.5
2023-03-05T01:58:45.507Z,1009.5
2023-03-05T02:03:53.556Z,1009.4
2023-03-05T02:09:01.455Z,1009.4
2023-03-05T02:14:10.117Z,1009.3
2023-03-05T02:19:17.345Z,1009.3
2023-03-05T02:24:25.328Z,1009.2
2023-03-05T02:29:33.267Z,1009.2
2023-03-05T02:34:39.637Z,1009
2023-03-05T02:39:46.312Z,1009.1
2023-03-05T02:44:52.345Z,1009.1
2023-03-05T02:49:58.710Z,1009
2023-03-05T02:55:05.069Z,1008.9
2023-03-05T03:00:11.481Z,1008.9
2023-03-05T03:05:17.786Z,1008.9
2023-03-05T03:10:24.175Z,1008.9
2023-03-05T03:15:30.493Z,1008.8
2023-03-05T03:20:36.840Z,1008.7
2023-03-05T03:25:43.230Z,1008.6
2023-03-05T03:30:49.603Z,1008.5
2023-03-05T03:35:56.061Z,1008.5
2023-03-05T03:41:02.309Z,1008.5
2023-03-05T03:46:08.673Z,1008.4
2023-03-05T03:51:15.003Z,1008.4
2023-03-05T03:56:21.377Z,1008.4
2023-03-05T04:01:27.702Z,1008.3
2023-03-05T04:06:34.407Z,1008.3
2023-03-05T04:11:40.441Z,1008.2
2023-03-05T04:16:48.396Z,1008.1
2023-03-05T04:21:56.345Z,1008.1
2023-03-05T04:27:04.329Z,1008.1
2023-03-05T04:32:12.288Z,1008
2023-03-05T04:37:20.194Z,1008
2023-03-05T04:42:28.201Z,1007.9
2023-03-05T04:47:36.129Z,1007.8
2023-03-05T04:52:44.076Z,1007.8
2023-03-05T04:57:52.082Z,1007.8
2023-03-05T05:03:00.104Z,1007.7
2023-03-05T05:08:07.979Z,1007.7
2023-03-05T05:13:15.955Z,1007.7
2023-03-05T05:18:23.874Z,1007.7
2023-03-05T05:23:31.839Z,1007.6
2023-03-05T05:28:39.837Z,1007.5
2023-03-05T05:33:49.808Z,1007.5
2023-03-05T05:38:55.744Z,1007.5
2023-03-05T05:44:03.703Z,1007.5
2023-03-05T05:49:11.652Z,1007.5
2023-03-05T05:54:19.605Z,1007.4
2023-03-05T05:59:27.600Z,1007.3
2023-03-05T06:04:35.528Z,1007.3
2023-03-05T06:09:43.475Z,1007.3
2023-03-05T06:14:51.462Z,1007.3
2023-03-05T06:19:59.392Z,1007.3
2023-03-05T06:25:07.379Z,1007.4
2023-03-05T06:30:15.362Z,1007.4
2023-03-05T06:35:23.345Z,1007.4
2023-03-05T06:40:31.241Z,1007.4
2023-03-05T06:45:39.354Z,1007.3
2023-03-05T06:50:45.591Z,1007.3
2023-03-05T06:55:51.925Z,1007.4
2023-03-05T07:00:58.353Z,1007.4
2023-03-05T07:06:04.608Z,1007.3
2023-03-05T07:11:10.985Z,1007.3
2023-03-05T07:16:17.475Z,1007.2
2023-03-05T07:21:23.694Z,1007.2
2023-03-05T07:26:30.045Z,1007.2
2023-03-05T07:31:36.461Z,1007.2
2023-03-05T07:36:42.742Z,1007.2
2023-03-05T07:41:49.113Z,1007.1
2023-03-05T07:46:55.506Z,1007.1
2023-03-05T07:52:01.827Z,1007.1
2023-03-05T07:57:08.200Z,1007
2023-03-05T08:02:14.598Z,1007
2023-03-05T08:07:20.912Z,1007
2023-03-05T08:12:28.866Z,1007
2023-03-05T08:17:36.843Z,1006.9
2023-03-05T08:22:44.806Z,1006.9
2023-03-05T08:27:52.718Z,1006.8
2023-03-05T08:33:00.706Z,1006.7
2023-03-05T08:38:08.652Z,1006.7
2023-03-05T08:43:16.620Z,1006.7
2023-03-05T08:48:24.597Z,1006.6
2023-03-05T08:53:32.548Z,1006.6
2023-03-05T08:58:40.465Z,1006.6
2023-03-05T09:03:48.498Z,1006.5
2023-03-05T09:08:56.402Z,1006.5
2023-03-05T09:14:04.360Z,1006.5
2023-03-05T09:19:12.332Z,1006.4
2023-03-05T09:24:20.260Z,1006.5
2023-03-05T09:29:28.277Z,1006.4
2023-03-05T09:34:36.224Z,1006.3
2023-03-05T09:39:44.162Z,1006.3
2023-03-05T09:44:52.103Z,1006.2
2023-03-05T09:50:00.168Z,1006.2
2023-03-05T09:55:08.031Z,1006.1
2023-03-05T10:00:15.970Z,1006.2
2023-03-05T10:05:24.007Z,1006.1
2023-03-05T10:10:31.926Z,1006.1
2023-03-05T10:15:39.910Z,1006
2023-03-05T10:20:47.857Z,1006
2023-03-05T10:25:55.787Z,1005.9
2023-03-05T10:31:03.751Z,1005.9
2023-03-05T10:36:11.751Z,1005.9
2023-03-05T10:41:19.662Z,1005.8
2023-03-05T10:46:27.685Z,1005.7
2023-03-05T10:51:35.613Z,1005.7
2023-03-05T10:56:43.538Z,1005.7
2023-03-05T11:01:51.503Z,1005.6
2023-03-05T11:06:57.882Z,1005.5
2023-03-05T11:12:04.202Z,1005.5
2023-03-05T11:17:10.549Z,1005.4
2023-03-05T11:22:16.954Z,1005.4
2023-03-05T11:27:23.274Z,1005.3
2023-03-05T11:32:29.660Z,1005.2
2023-03-05T11:37:35.997Z,1005.1
2023-03-05T11:42:43.945Z,1005.1
2023-03-05T11:47:50.296Z,1005.1
2023-03-05T11:52:56.688Z,1005.1
2023-03-05T11:58:03.026Z,1004.9
2023-03-05T12:03:09.589Z,1004.8
2023-03-05T12:08:17.359Z,1004.8
2023-03-05T12:13:25.296Z,1004.7
2023-03-05T12:18:31.702Z,1004.6
2023-03-05T12:23:39.613Z,1004.6
2023-03-05T12:28:47.559Z,1004.5
2023-03-05T12:33:55.519Z,1004.3
2023-03-05T12:39:03.490Z,1004.3
2023-03-05T12:44:11.437Z,1004.2
2023-03-05T12:49:19.427Z,1004.1
2023-03-05T12:54:27.389Z,1004
2023-03-05T12:59:35.317Z,1003.9
2023-03-05T13:04:43.277Z,1003.8
2023-03-05T13:09:51.228Z,1003.8
2023-03-05T13:14:59.195Z,1003.7
2023-03-05T13:20:07.171Z,1003.6
2023-03-05T13:25:15.118Z,1003.6
2023-03-05T13:30:23.062Z,1003.6
2023-03-05T13:35:31.008Z,1003.5
2023-03-05T13:40:38.985Z,1003.4
2023-03-05T13:45:46.993Z,1003.4
2023-03-05T13:50:54.904Z,1003.3
2023-03-05T13:56:02.872Z,1003.3
2023-03-05T14:01:10.846Z,1003.2
2023-03-05T14:06:19.026Z,1003.1
2023-03-05T14:11:26.738Z,1003.1
2023-03-05T14:16:34.739Z,1003
2023-03-05T14:21:42.632Z,1003
2023-03-05T14:26:50.624Z,1002.9
2023-03-05T14:31:58.666Z,1002.8
2023-03-05T14:37:06.496Z,1002.8
2023-03-05T14:42:14.603Z,1002.6
2023-03-05T14:52:30.378Z,1002.5
2023-03-05T14:57:38.370Z,1002.4
2023-03-05T15:02:46.371Z,1002.3
2023-03-05T15:07:54.264Z,1002.2
2023-03-05T15:13:02.245Z,1002.1
2023-03-05T15:18:10.186Z,1002.1
2023-03-05T15:23:16.564Z,1002
2023-03-05T15:28:22.935Z,1002
2023-03-05T15:33:29.280Z,1002
2023-03-05T15:38:35.621Z,1002
2023-03-05T15:43:42.000Z,1001.9
2023-03-05T15:48:48.340Z,1001.8
2023-03-05T15:53:54.717Z,1001.7
2023-03-05T15:59:01.072Z,1001.6
2023-03-05T16:04:07.404Z,1001.6
2023-03-05T16:09:13.755Z,1001.6
2023-03-05T16:14:20.135Z,1001.5
2023-03-05T16:19:26.472Z,1001.5
2023-03-05T16:24:34.426Z,1001.4
2023-03-05T16:29:42.412Z,1001.4
2023-03-05T16:34:50.333Z,1001.3
2023-03-05T16:39:58.315Z,1001.3
2023-03-05T16:45:06.319Z,1001.2
2023-03-05T16:50:14.229Z,1001.2
2023-03-05T16:55:22.187Z,1001.1
2023-03-05T17:00:30.303Z,1001.2
2023-03-05T17:05:38.098Z,1001.1
2023-03-05T17:10:46.080Z,1001.1
2023-03-05T17:15:56.364Z,1001
2023-03-05T17:21:01.986Z,1001
2023-03-05T17:26:09.967Z,1001
2023-03-05T17:31:17.992Z,1001
2023-03-05T17:36:25.975Z,1001
2023-03-05T17:41:33.853Z,1000.9
2023-03-05T17:46:41.804Z,1001
2023-03-05T17:51:49.739Z,1000.9
2023-03-05T17:56:57.705Z,1000.9
2023-03-05T18:02:05.688Z,1000.9
2023-03-05T18:07:13.633Z,1000.9
2023-03-05T18:12:21.558Z,1000.8
2023-03-05T18:17:29.553Z,1000.8
2023-03-05T18:22:37.484Z,1000.8
2023-03-05T18:27:45.456Z,1000.7
2023-03-05T18:32:53.432Z,1000.7
2023-03-05T18:38:01.365Z,1000.8
2023-03-05T18:43:09.325Z,1000.7
2023-03-05T18:48:17.315Z,1000.6
2023-03-05T18:53:25.237Z,1000.6
2023-03-05T18:58:33.210Z,1000.5
2023-03-05T19:03:41.195Z,1000.4
2023-03-05T19:08:49.136Z,1000.5
2023-03-05T19:13:57.132Z,1000.4
2023-03-05T19:19:05.129Z,1000.4
2023-03-05T19:24:13.008Z,1000.3
2023-03-05T19:29:20.950Z,1000.3
2023-03-05T19:34:28.951Z,1000.3
2023-03-05T19:39:35.315Z,1000.2
2023-03-05T19:44:41.641Z,1000.2
2023-03-05T19:49:48.009Z,1000.2
2023-03-05T19:54:54.414Z,1000.1
2023-03-05T20:00:00.704Z,1000.1
2023-03-05T20:05:07.091Z,1000
2023-03-05T20:10:13.592Z,1000
2023-03-05T20:15:19.811Z,999.9
2023-03-05T20:20:27.787Z,999.9
2023-03-05T20:25:35.695Z,999.8
2023-03-05T20:30:43.664Z,999.8
2023-03-05T20:35:51.725Z,999.8
2023-03-05T20:40:59.573Z,999.8
2023-03-05T20:46:07.560Z,999.7
2023-03-05T20:51:15.532Z,999.6
2023-03-05T20:56:23.516Z,999.6
2023-03-05T21:01:31.416Z,999.5
2023-03-05T21:06:39.409Z,999.4
2023-03-05T21:11:47.338Z,999.4
2023-03-05T21:16:55.286Z,999.4
2023-03-05T21:22:03.271Z,999.3
2023-03-05T21:27:11.211Z,999.3
2023-03-05T21:32:19.223Z,999.2
2023-03-05T21:37:27.179Z,999.1
2023-03-05T21:42:35.101Z,999.1
2023-03-05T21:47:43.069Z,999.1
2023-03-05T21:52:51.016Z,999
2023-03-05T21:57:58.948Z,998.9
2023-03-05T22:03:06.922Z,998.8
2023-03-05T22:08:14.908Z,998.8
2023-03-05T22:13:22.847Z,998.7
2023-03-05T22:18:30.805Z,998.6
2023-03-05T22:23:38.784Z,998.5
2023-03-05T22:28:46.703Z,998.4
2023-03-05T22:33:54.658Z,998.4
2023-03-05T22:39:02.665Z,998.3
2023-03-05T22:44:10.576Z,998.3
2023-03-05T22:49:18.568Z,998.2
2023-03-05T22:54:26.531Z,998.2
2023-03-05T22:59:34.474Z,998.2
2023-03-05T23:04:42.437Z,998.2
2023-03-05T23:09:50.421Z,998.1
2023-03-05T23:14:58.364Z,998.1
2023-03-05T23:20:06.320Z,998.1
2023-03-05T23:25:14.291Z,998
2023-03-05T23:30:22.241Z,998
2023-03-05T23:35:30.240Z,998
2023-03-05T23:40:38.175Z,998
2023-03-05T23:45:46.120Z,998
2023-03-05T23:50:54.060Z,997.9
2023-03-05T23:56:00.443Z,997.9
